createdAt,value
2022-11-21T00:01:17.488Z,71.07
2022-11-21T00:03:44.738Z,70.91
2022-11-21T00:06:11.828Z,70.88
2022-11-21T00:08:39.039Z,71.19
2022-11-21T00:11:06.084Z,71.35
2022-11-21T00:13:33.641Z,71.36
2022-11-21T00:16:08.517Z,71.32
2022-11-21T00:18:35.625Z,71.35
2022-11-21T00:21:20.387Z,70.91
2022-11-21T00:23:48.043Z,71.21
2022-11-21T00:26:16.490Z,71.11
2022-11-21T00:28:44.481Z,71.10
2022-11-21T00:31:22.430Z,70.68
2022-11-21T00:33:49.385Z,70.68
2022-11-21T00:36:16.678Z,71.07
2022-11-21T00:38:43.805Z,71.04
2022-11-21T00:41:10.870Z,70.83
2022-11-21T00:43:37.937Z,71.07
2022-11-21T00:46:05.094Z,70.95
2022-11-21T00:48:32.389Z,70.91
2022-11-21T00:50:59.739Z,70.93
2022-11-21T00:53:26.850Z,70.78
2022-11-21T00:55:53.896Z,70.81
2022-11-21T00:58:21.000Z,70.75
2022-11-21T01:00:48.122Z,70.79
2022-11-21T01:03:15.343Z,70.88
2022-11-21T01:05:42.393Z,70.80
2022-11-21T01:08:09.553Z,70.71
2022-11-21T01:10:36.910Z,70.86
2022-11-21T01:13:03.924Z,70.66
2022-11-21T01:15:31.148Z,70.49
2022-11-21T01:17:58.292Z,70.45
2022-11-21T01:20:25.405Z,70.26
2022-11-21T01:22:52.548Z,70.51
2022-11-21T01:25:19.644Z,70.35
2022-11-21T01:27:46.798Z,70.39
2022-11-21T01:30:14.694Z,70.33
2022-11-21T01:32:41.822Z,70.34
2022-11-21T01:35:09.149Z,70.40
2022-11-21T01:37:36.215Z,70.51
2022-11-21T01:40:03.602Z,70.46
2022-11-21T01:42:44.626Z,69.42
2022-11-21T01:45:48.583Z,69.57
2022-11-21T01:48:15.737Z,70.52
2022-11-21T01:50:43.038Z,70.54
2022-11-21T01:53:10.190Z,70.53
2022-11-21T01:55:37.655Z,70.70
2022-11-21T01:58:05.046Z,70.38
2022-11-21T02:00:37.332Z,70.48
2022-11-21T02:03:10.470Z,70.18
2022-11-21T02:05:38.795Z,70.70
2022-11-21T02:08:11.589Z,70.21
2022-11-21T02:10:47.741Z,70.03
2022-11-21T02:13:15.184Z,70.58
2022-11-21T02:15:42.276Z,70.67
2022-11-21T02:18:09.851Z,70.66
2022-11-21T02:20:39.341Z,70.53
2022-11-21T02:23:25.491Z,69.74
2022-11-21T02:25:53.276Z,70.27
2022-11-21T02:28:22.064Z,70.23
2022-11-21T02:30:49.232Z,70.23
2022-11-21T02:33:16.670Z,70.31
2022-11-21T02:35:43.950Z,70.12
2022-11-21T02:38:22.468Z,69.10
2022-11-21T02:40:58.449Z,69.25
2022-11-21T02:43:35.822Z,68.48
2022-11-21T02:46:02.897Z,69.75
2022-11-21T02:48:30.062Z,69.84
2022-11-21T02:50:57.124Z,69.85
2022-11-21T02:53:24.230Z,69.90
2022-11-21T02:55:51.410Z,69.79
2022-11-21T02:58:18.540Z,69.65
2022-11-21T03:00:45.690Z,68.78
2022-11-21T03:03:12.761Z,69.72
2022-11-21T03:05:40.967Z,69.42
2022-11-21T03:08:08.490Z,69.63
2022-11-21T03:10:35.570Z,69.50
2022-11-21T03:13:02.620Z,69.66
2022-11-21T03:15:34.290Z,69.50
2022-11-21T03:18:02.531Z,69.96
2022-11-21T03:20:30.264Z,68.60
2022-11-21T03:22:57.518Z,70.07
2022-11-21T03:25:24.643Z,70.30
2022-11-21T03:27:52.860Z,70.20
2022-11-21T03:30:24.513Z,69.36
2022-11-21T03:32:54.667Z,70.12
2022-11-21T03:35:21.719Z,69.72
2022-11-21T03:37:49.149Z,69.80
2022-11-21T03:40:16.508Z,69.41
2022-11-21T03:42:43.678Z,69.09
2022-11-21T03:45:11.019Z,69.24
2022-11-21T03:47:38.237Z,68.97
2022-11-21T03:50:05.609Z,68.90
2022-11-21T03:52:32.702Z,68.69
2022-11-21T03:54:59.925Z,68.96
2022-11-21T03:57:26.959Z,68.81
2022-11-21T03:59:54.093Z,68.94
2022-11-21T04:02:21.319Z,68.83
2022-11-21T04:04:48.385Z,68.97
2022-11-21T04:07:15.486Z,69.10
2022-11-21T04:09:42.705Z,69.28
2022-11-21T04:12:09.794Z,69.32
2022-11-21T04:14:36.875Z,69.39
2022-11-21T04:17:03.998Z,69.69
2022-11-21T04:19:31.094Z,69.81
2022-11-21T04:21:58.331Z,70.17
2022-11-21T04:24:25.537Z,70.20
2022-11-21T04:26:54.582Z,70.03
2022-11-21T04:29:21.918Z,70.31
2022-11-21T04:31:49.097Z,70.59
2022-11-21T04:34:16.196Z,70.42
2022-11-21T04:36:43.293Z,70.47
2022-11-21T04:39:10.472Z,70.31
2022-11-21T04:41:37.598Z,69.93
2022-11-21T04:44:05.022Z,70.21
2022-11-21T04:46:32.296Z,70.17
2022-11-21T04:48:59.473Z,69.83
2022-11-21T04:51:26.560Z,70.04
2022-11-21T04:53:53.601Z,70.12
2022-11-21T04:56:20.780Z,69.94
2022-11-21T04:58:47.866Z,69.69
2022-11-21T05:01:15.133Z,69.81
2022-11-21T05:03:42.225Z,69.50
2022-11-21T05:06:09.351Z,69.49
2022-11-21T05:08:36.569Z,69.73
2022-11-21T05:11:03.620Z,69.47
2022-11-21T05:13:30.820Z,69.67
2022-11-21T05:15:58.288Z,69.74
2022-11-21T05:18:25.746Z,69.89
2022-11-21T05:20:52.802Z,69.63
2022-11-21T05:23:19.858Z,69.67
2022-11-21T05:25:46.999Z,69.72
2022-11-21T05:28:14.159Z,69.70
2022-11-21T05:30:41.205Z,69.67
2022-11-21T05:33:08.360Z,69.94
2022-11-21T05:35:40.171Z,69.89
2022-11-21T05:38:10.017Z,70.06
2022-11-21T05:40:37.142Z,70.15
2022-11-21T05:43:04.329Z,70.01
2022-11-21T05:45:31.372Z,69.87
2022-11-21T05:47:58.486Z,69.86
2022-11-21T05:50:25.601Z,69.91
2022-11-21T05:52:52.913Z,69.92
2022-11-21T05:55:19.927Z,70.06
2022-11-21T05:57:47.001Z,70.13
2022-11-21T06:00:14.700Z,70.04
2022-11-21T06:02:41.800Z,70.13
2022-11-21T06:05:09.259Z,70.21
2022-11-21T06:07:36.562Z,70.14
2022-11-21T06:10:04.221Z,70.09
2022-11-21T06:12:31.571Z,70.03
2022-11-21T06:14:58.699Z,70.06
2022-11-21T06:17:25.913Z,70.20
2022-11-21T06:19:52.941Z,70.38
2022-11-21T06:22:20.079Z,70.28
2022-11-21T06:24:47.125Z,70.30
2022-11-21T06:27:14.252Z,70.25
2022-11-21T06:29:41.345Z,70.22
2022-11-21T06:32:08.399Z,70.08
2022-11-21T06:34:35.445Z,70.08
2022-11-21T06:37:02.622Z,70.19
2022-11-21T06:39:29.677Z,70.61
2022-11-21T06:41:56.896Z,70.53
2022-11-21T06:44:23.948Z,70.71
2022-11-21T06:46:51.799Z,70.72
2022-11-21T06:49:19.250Z,70.77
2022-11-21T06:51:46.341Z,70.75
2022-11-21T06:54:16.765Z,70.81
2022-11-21T06:56:44.345Z,70.79
2022-11-21T06:59:11.509Z,70.82
2022-11-21T07:01:38.773Z,70.89
2022-11-21T07:04:05.848Z,71.05
2022-11-21T07:06:34.966Z,70.76
2022-11-21T07:11:49.243Z,71.03
2022-11-21T07:14:17.673Z,70.97
2022-11-21T07:16:44.737Z,71.06
2022-11-21T07:19:11.929Z,70.93
2022-11-21T07:21:39.138Z,70.50
2022-11-21T07:24:06.293Z,70.17
2022-11-21T07:26:33.431Z,70.18
2022-11-21T07:29:00.582Z,70.10
2022-11-21T07:31:27.659Z,70.02
2022-11-21T07:33:54.803Z,69.65
2022-11-21T07:36:21.906Z,69.45
2022-11-21T07:38:48.959Z,69.51
2022-11-21T07:41:16.126Z,69.28
2022-11-21T07:43:43.261Z,69.38
2022-11-21T07:46:10.544Z,69.23
2022-11-21T07:48:37.650Z,69.23
2022-11-21T07:51:05.814Z,68.96
2022-11-21T07:53:32.838Z,68.41
2022-11-21T07:55:59.933Z,69.21
2022-11-21T07:58:27.002Z,69.38
2022-11-21T08:00:54.183Z,69.42
2022-11-21T08:03:21.388Z,69.49
2022-11-21T08:05:48.627Z,69.74
2022-11-21T08:08:15.795Z,70.02
2022-11-21T08:10:45.499Z,69.52
2022-11-21T08:13:13.694Z,69.52
2022-11-21T08:15:41.002Z,69.83
2022-11-21T08:18:15.933Z,68.92
2022-11-21T08:20:43.025Z,69.84
2022-11-21T08:23:10.869Z,70.08
2022-11-21T08:25:39.509Z,70.11
2022-11-21T08:28:08.012Z,69.93
2022-11-21T08:30:36.255Z,70.05
2022-11-21T08:33:03.753Z,68.54
2022-11-21T08:35:31.103Z,69.78
2022-11-21T08:37:59.386Z,69.15
2022-11-21T08:40:28.590Z,69.23
2022-11-21T08:43:04.630Z,67.16
2022-11-21T08:45:32.464Z,69.48
2022-11-21T08:47:59.910Z,69.24
2022-11-21T08:50:27.100Z,69.14
2022-11-21T08:52:59.950Z,68.11
2022-11-21T08:55:27.229Z,68.89
2022-11-21T08:57:54.233Z,69.21
2022-11-21T09:00:21.420Z,69.11
2022-11-21T09:02:48.542Z,69.37
2022-11-21T09:05:15.590Z,69.60
2022-11-21T09:07:42.695Z,68.69
2022-11-21T09:10:10.321Z,68.98
2022-11-21T09:12:37.493Z,68.97
2022-11-21T09:15:05.510Z,68.64
2022-11-21T09:17:32.629Z,68.96
2022-11-21T09:19:59.807Z,69.29
2022-11-21T09:22:26.893Z,68.79
2022-11-21T09:24:54.058Z,69.24
2022-11-21T09:27:21.123Z,69.73
2022-11-21T09:29:52.441Z,70.09
2022-11-21T09:32:21.658Z,70.82
2022-11-21T09:34:48.757Z,71.10
2022-11-21T09:37:15.938Z,70.61
2022-11-21T09:39:43.037Z,69.68
2022-11-21T09:42:10.060Z,69.56
2022-11-21T09:44:47.331Z,68.25
2022-11-21T09:47:22.518Z,66.97
2022-11-21T09:49:57.108Z,66.96
2022-11-21T09:52:31.875Z,68.00
2022-11-21T09:55:04.851Z,67.54
2022-11-21T09:57:35.008Z,67.85
2022-11-21T10:00:14.093Z,68.15
2022-11-21T10:02:41.687Z,66.71
2022-11-21T10:05:14.051Z,65.79
2022-11-21T10:07:42.907Z,66.84
2022-11-21T10:10:33.563Z,65.38
2022-11-21T10:13:14.682Z,66.60
2022-11-21T10:15:58.222Z,66.39
2022-11-21T10:19:06.990Z,64.09
2022-11-21T10:22:04.618Z,65.67
2022-11-21T10:24:43.839Z,66.11
2022-11-21T10:27:32.332Z,65.87
2022-11-21T10:30:04.517Z,68.00
2022-11-21T10:32:47.619Z,65.72
2022-11-21T10:35:19.177Z,67.58
2022-11-21T10:38:00.134Z,64.03
2022-11-21T10:40:40.310Z,63.77
2022-11-21T10:43:15.966Z,66.49
2022-11-21T10:45:43.134Z,66.11
2022-11-21T10:48:10.290Z,65.88
2022-11-21T10:50:57.043Z,64.46
2022-11-21T10:53:26.098Z,66.30
2022-11-21T10:56:03.524Z,63.91
2022-11-21T10:58:39.854Z,64.18
2022-11-21T11:01:07.182Z,66.55
2022-11-21T11:03:34.254Z,66.87
2022-11-21T11:06:01.323Z,65.96
2022-11-21T11:08:28.497Z,66.24
2022-11-21T11:11:05.619Z,63.48
2022-11-21T11:13:49.883Z,66.39
2022-11-21T11:16:20.494Z,65.24
2022-11-21T11:18:59.317Z,63.79
2022-11-21T11:21:50.410Z,64.67
2022-11-21T11:24:17.503Z,66.69
2022-11-21T11:26:48.598Z,64.93
2022-11-21T11:29:31.323Z,64.61
2022-11-21T11:32:21.686Z,63.65
2022-11-21T11:34:59.159Z,64.56
2022-11-21T11:37:41.120Z,64.50
2022-11-21T11:40:29.655Z,63.75
2022-11-21T11:43:41.905Z,63.64
2022-11-21T11:46:21.483Z,66.57
2022-11-21T11:49:19.352Z,66.72
2022-11-21T11:51:44.030Z,66.10
2022-11-21T11:54:24.483Z,64.23
2022-11-21T11:56:52.108Z,66.85
2022-11-21T11:59:33.957Z,64.34
2022-11-21T12:02:11.563Z,66.25
2022-11-21T12:04:50.525Z,64.95
2022-11-21T12:10:20.799Z,63.61
2022-11-21T12:13:06.541Z,65.59
2022-11-21T12:15:44.005Z,65.05
2022-11-21T12:18:19.936Z,66.63
2022-11-21T12:21:11.012Z,62.89
2022-11-21T12:23:47.280Z,64.41
2022-11-21T12:26:20.225Z,64.22
2022-11-21T12:29:11.990Z,64.78
2022-11-21T12:32:04.759Z,64.83
2022-11-21T12:34:31.799Z,67.91
2022-11-21T12:37:23.020Z,65.91
2022-11-21T12:40:18.593Z,66.22
2022-11-21T12:43:16.065Z,64.58
2022-11-21T12:45:54.504Z,64.18
2022-11-21T12:48:49.393Z,65.26
2022-11-21T12:51:31.317Z,65.12
2022-11-21T12:54:17.295Z,66.67
2022-11-21T12:57:16.098Z,62.68
2022-11-21T12:59:58.142Z,65.84
2022-11-21T13:02:55.442Z,62.42
2022-11-21T13:05:29.166Z,65.21
2022-11-21T13:08:13.075Z,61.57
2022-11-21T13:10:50.718Z,65.22
2022-11-21T13:13:32.515Z,61.34
2022-11-21T13:16:08.550Z,63.11
2022-11-21T13:18:46.020Z,64.03
2022-11-21T13:21:42.367Z,63.65
2022-11-21T13:24:09.890Z,66.33
2022-11-21T13:26:36.897Z,66.56
2022-11-21T13:29:12.815Z,63.96
2022-11-21T13:31:40.629Z,65.54
2022-11-21T13:34:35.173Z,63.74
2022-11-21T13:37:02.825Z,65.01
2022-11-21T13:39:34.938Z,63.86
2022-11-21T13:42:07.534Z,63.60
2022-11-21T13:44:39.487Z,60.17
2022-11-21T13:47:09.511Z,63.08
2022-11-21T13:49:36.550Z,64.49
2022-11-21T13:52:20.782Z,60.50
2022-11-21T13:55:35.326Z,59.88
2022-11-21T13:58:42.987Z,58.53
2022-11-21T14:01:21.927Z,61.28
2022-11-21T14:04:08.488Z,61.67
2022-11-21T14:06:41.973Z,62.20
2022-11-21T14:09:20.059Z,62.67
2022-11-21T14:11:47.095Z,63.21
2022-11-21T14:14:25.082Z,59.21
2022-11-21T14:16:58.273Z,60.98
2022-11-21T14:19:27.620Z,64.35
2022-11-21T14:21:55.014Z,64.34
2022-11-21T14:24:22.432Z,64.35
2022-11-21T14:26:52.363Z,63.78
2022-11-21T14:29:38.205Z,64.06
2022-11-21T14:32:05.329Z,64.01
2022-11-21T14:34:33.222Z,64.12
2022-11-21T14:37:05.151Z,63.13
2022-11-21T14:39:39.711Z,64.16
2022-11-21T14:42:15.052Z,63.02
2022-11-21T14:44:42.786Z,64.11
2022-11-21T14:47:25.215Z,62.35
2022-11-21T14:49:55.443Z,63.92
2022-11-21T14:52:30.947Z,62.80
2022-11-21T14:55:29.015Z,64.24
2022-11-21T14:57:48.005Z,64.35
2022-11-21T15:03:20.214Z,62.79
2022-11-21T15:06:06.950Z,63.95
2022-11-21T15:11:32.560Z,63.82
2022-11-21T15:14:19.778Z,63.74
2022-11-21T15:16:50.002Z,64.21
2022-11-21T15:19:21.056Z,63.74
2022-11-21T15:21:49.933Z,64.25
2022-11-21T15:24:39.386Z,63.06
2022-11-21T15:27:31.236Z,63.20
2022-11-21T15:30:23.791Z,63.43
2022-11-21T15:33:00.917Z,63.56
2022-11-21T15:35:49.055Z,63.59
2022-11-21T15:38:46.945Z,63.55
2022-11-21T15:41:14.121Z,64.75
2022-11-21T15:44:13.422Z,63.91
2022-11-21T15:46:40.543Z,64.91
2022-11-21T15:49:31.428Z,64.85
2022-11-21T15:52:12.557Z,65.16
2022-11-21T15:54:39.685Z,65.28
2022-11-21T15:57:08.251Z,65.45
2022-11-21T15:59:35.391Z,65.49
2022-11-21T16:02:02.698Z,65.69
2022-11-21T16:04:29.779Z,65.50
2022-11-21T16:06:56.849Z,65.73
2022-11-21T16:09:23.912Z,65.70
2022-11-21T16:11:50.974Z,65.91
2022-11-21T16:14:18.136Z,65.70
2022-11-21T16:16:47.442Z,65.90
2022-11-21T16:19:15.689Z,66.02
2022-11-21T16:21:43.168Z,66.08
2022-11-21T16:24:10.351Z,66.26
2022-11-21T16:26:37.399Z,66.25
2022-11-21T16:29:04.472Z,66.18
2022-11-21T16:31:31.653Z,66.32
2022-11-21T16:33:59.014Z,66.21
2022-11-21T16:36:30.841Z,66.18
2022-11-21T16:39:05.142Z,66.28
2022-11-21T16:41:35.167Z,66.36
2022-11-21T16:44:02.386Z,66.39
2022-11-21T16:46:29.501Z,66.51
2022-11-21T16:49:03.018Z,66.50
2022-11-21T16:51:30.705Z,66.62
2022-11-21T16:54:01.581Z,66.64
2022-11-21T16:56:31.509Z,66.67
2022-11-21T16:58:58.589Z,66.77
2022-11-21T17:01:26.599Z,66.76
2022-11-21T17:03:53.854Z,66.12
2022-11-21T17:06:26.290Z,66.63
2022-11-21T17:08:53.425Z,66.88
2022-11-21T17:11:26.012Z,66.94
2022-11-21T17:13:53.148Z,66.96
2022-11-21T17:16:21.560Z,66.95
2022-11-21T17:18:53.023Z,67.01
2022-11-21T17:21:20.178Z,67.14
2022-11-21T17:23:48.199Z,67.25
2022-11-21T17:26:16.965Z,66.66
2022-11-21T17:28:46.047Z,67.10
2022-11-21T17:31:15.581Z,67.01
2022-11-21T17:33:43.835Z,67.00
2022-11-21T17:36:12.830Z,66.89
2022-11-21T17:38:40.278Z,67.12
2022-11-21T17:41:10.738Z,67.22
2022-11-21T17:43:37.875Z,67.15
2022-11-21T17:46:09.831Z,67.27
2022-11-21T17:48:38.241Z,67.29
2022-11-21T17:51:17.263Z,67.49
2022-11-21T17:53:47.331Z,67.36
2022-11-21T17:56:17.171Z,67.39
2022-11-21T17:58:44.537Z,67.25
2022-11-21T18:01:12.503Z,67.34
2022-11-21T18:03:39.858Z,66.93
2022-11-21T18:06:09.326Z,67.16
2022-11-21T18:08:38.568Z,67.28
2022-11-21T18:11:10.736Z,67.17
2022-11-21T18:13:38.586Z,67.37
2022-11-21T18:16:11.876Z,67.04
2022-11-21T18:18:39.296Z,67.31
2022-11-21T18:21:11.981Z,67.01
2022-11-21T18:23:39.263Z,67.35
2022-11-21T18:26:31.907Z,67.07
2022-11-21T18:29:28.718Z,67.44
2022-11-21T18:31:47.914Z,67.58
2022-11-21T18:34:15.222Z,67.87
2022-11-21T18:36:42.361Z,67.87
2022-11-21T18:39:14.634Z,67.90
2022-11-21T18:41:42.776Z,67.95
2022-11-21T18:44:09.831Z,67.92
2022-11-21T18:46:37.767Z,67.96
2022-11-21T18:49:06.777Z,68.01
2022-11-21T18:51:35.378Z,67.92
2022-11-21T18:54:06.814Z,67.86
2022-11-21T18:56:34.943Z,68.00
2022-11-21T18:59:02.038Z,67.78
2022-11-21T19:01:29.866Z,67.71
2022-11-21T19:03:57.250Z,67.68
2022-11-21T19:06:26.026Z,67.92
2022-11-21T19:08:54.975Z,67.84
2022-11-21T19:11:24.482Z,67.99
2022-11-21T19:13:53.415Z,68.14
2022-11-21T19:16:22.749Z,68.09
2022-11-21T19:19:11.765Z,68.43
2022-11-21T19:21:39.090Z,68.53
2022-11-21T19:24:06.994Z,68.63
2022-11-21T19:26:34.105Z,68.60
2022-11-21T19:29:01.650Z,68.79
2022-11-21T19:31:28.882Z,68.74
2022-11-21T19:33:56.003Z,68.86
2022-11-21T19:36:23.925Z,68.77
2022-11-21T19:38:51.802Z,68.80
2022-11-21T19:41:20.313Z,68.51
2022-11-21T19:43:49.629Z,68.82
2022-11-21T19:46:22.354Z,69.01
2022-11-21T19:48:52.193Z,69.32
2022-11-21T19:51:20.812Z,69.38
2022-11-21T19:53:48.269Z,69.35
2022-11-21T19:56:25.234Z,69.44
2022-11-21T19:58:52.997Z,69.60
2022-11-21T20:01:22.391Z,69.62
2022-11-21T20:03:51.782Z,69.93
2022-11-21T20:06:24.688Z,69.64
2022-11-21T20:08:56.541Z,70.01
2022-11-21T20:11:25.959Z,70.14
2022-11-21T20:13:53.390Z,70.35
2022-11-21T20:16:24.026Z,69.92
2022-11-21T20:18:52.534Z,70.52
2022-11-21T20:21:19.957Z,70.60
2022-11-21T20:23:47.361Z,70.73
2022-11-21T20:26:16.477Z,70.71
2022-11-21T20:28:44.479Z,70.62
2022-11-21T20:31:14.413Z,70.46
2022-11-21T20:33:43.780Z,70.74
2022-11-21T20:36:13.426Z,70.34
2022-11-21T20:38:40.502Z,70.60
2022-11-21T20:41:07.567Z,70.31
2022-11-21T20:44:14.259Z,70.11
2022-11-21T20:46:22.126Z,69.43
2022-11-21T20:48:49.625Z,69.56
2022-11-21T20:54:04.455Z,69.25
2022-11-21T20:56:35.733Z,68.00
2022-11-21T20:59:04.875Z,68.75
2022-11-21T21:01:32.031Z,68.54
2022-11-21T21:03:59.191Z,68.43
2022-11-21T21:06:26.277Z,68.35
2022-11-21T21:08:53.434Z,68.36
2022-11-21T21:11:50.369Z,67.97
2022-11-21T21:14:10.199Z,68.30
2022-11-21T21:16:40.173Z,68.20
2022-11-21T21:19:07.221Z,68.16
2022-11-21T21:21:34.376Z,68.39
2022-11-21T21:24:06.438Z,68.17
2022-11-21T21:26:41.734Z,68.06
2022-11-21T21:29:11.900Z,68.27
2022-11-21T21:31:41.784Z,68.74
2022-11-21T21:34:12.653Z,68.93
2022-11-21T21:36:39.798Z,69.19
2022-11-21T21:39:06.952Z,69.16
2022-11-21T21:41:34.055Z,69.24
2022-11-21T21:44:01.233Z,69.33
2022-11-21T21:46:28.313Z,69.42
2022-11-21T21:48:57.493Z,69.26
2022-11-21T21:51:29.366Z,68.69
2022-11-21T21:53:57.812Z,69.41
2022-11-21T21:56:26.613Z,69.42
2022-11-21T21:58:54.157Z,69.23
2022-11-21T22:01:24.160Z,68.87
2022-11-21T22:03:56.234Z,68.31
2022-11-21T22:06:24.254Z,69.33
2022-11-21T22:08:51.694Z,69.28
2022-11-21T22:11:24.649Z,67.87
2022-11-21T22:13:57.235Z,68.95
2022-11-21T22:16:25.211Z,68.96
2022-11-21T22:18:53.402Z,68.93
2022-11-21T22:21:26.671Z,68.75
2022-11-21T22:24:24.746Z,69.25
2022-11-21T22:26:42.395Z,69.07
2022-11-21T22:29:09.450Z,69.40
2022-11-21T22:31:36.572Z,69.22
2022-11-21T22:34:03.628Z,68.99
2022-11-21T22:36:30.693Z,68.90
2022-11-21T22:38:57.757Z,68.78
2022-11-21T22:41:27.163Z,68.50
2022-11-21T22:43:58.766Z,67.61
2022-11-21T22:46:27.851Z,68.60
2022-11-21T22:48:55.407Z,68.74
2022-11-21T22:51:24.904Z,68.28
2022-11-21T22:53:52.976Z,68.56
2022-11-21T22:56:20.919Z,66.71
2022-11-21T22:58:48.088Z,66.89
2022-11-21T23:01:19.868Z,67.90
2022-11-21T23:03:47.200Z,68.81
2022-11-21T23:06:19.272Z,68.67
2022-11-21T23:08:47.408Z,68.83
2022-11-21T23:11:20.300Z,67.82
2022-11-21T23:13:48.147Z,68.79
2022-11-21T23:16:16.190Z,68.77
2022-11-21T23:18:43.646Z,69.08
2022-11-21T23:21:11.913Z,68.81
2022-11-21T23:23:39.274Z,69.08
2022-11-21T23:26:06.910Z,69.18
2022-11-21T23:28:34.156Z,69.14
2022-11-21T23:31:01.881Z,69.15
2022-11-21T23:33:29.165Z,69.45
2022-11-21T23:35:56.321Z,69.72
2022-11-21T23:38:23.406Z,69.65
2022-11-21T23:40:50.516Z,69.77
2022-11-21T23:43:18.592Z,69.62
2022-11-21T23:45:49.636Z,68.08
2022-11-21T23:48:16.774Z,69.90
2022-11-21T23:50:43.936Z,69.51
2022-11-21T23:53:11.074Z,69.49
2022-11-21T23:55:38.160Z,69.77
2022-11-21T23:58:05.384Z,69.55
